createdAt,value
2019-03-04T00:01:42.081Z,7.20
2019-03-04T00:04:11.731Z,7.20
2019-03-04T00:06:40.876Z,7.10
2019-03-04T00:09:12.365Z,7.20
2019-03-04T00:11:41.770Z,7.20
2019-03-04T00:14:10.887Z,7.20
2019-03-04T00:16:40.375Z,7.30
2019-03-04T00:19:09.775Z,7.50
2019-03-04T00:21:39.488Z,7.50
2019-03-04T00:24:09.150Z,7.50
2019-03-04T00:26:38.295Z,7.60
2019-03-04T00:29:07.700Z,7.60
2019-03-04T00:31:36.939Z,7.60
2019-03-04T00:34:06.051Z,7.60
2019-03-04T00:36:35.479Z,7.70
2019-03-04T00:39:09.062Z,7.70
2019-03-04T00:41:38.469Z,7.70
2019-03-04T00:44:07.856Z,7.70
2019-03-04T00:46:37.275Z,7.70
2019-03-04T00:49:06.672Z,7.80
2019-03-04T00:51:35.820Z,7.80
2019-03-04T00:54:04.933Z,7.80
2019-03-04T00:56:34.648Z,7.80
2019-03-04T00:59:03.873Z,7.90
2019-03-04T01:01:33.591Z,7.90
2019-03-04T01:04:03.347Z,7.90
2019-03-04T01:06:32.782Z,7.90
2019-03-04T01:09:02.147Z,7.90
2019-03-04T01:11:31.283Z,7.90
2019-03-04T01:14:00.394Z,7.80
2019-03-04T01:16:30.092Z,7.80
2019-03-04T01:18:59.803Z,7.80
2019-03-04T01:21:29.227Z,7.80
2019-03-04T01:23:58.634Z,7.80
2019-03-04T01:26:28.055Z,7.80
2019-03-04T01:28:57.980Z,7.80
2019-03-04T01:31:27.664Z,7.70
2019-03-04T01:33:57.615Z,7.70
2019-03-04T01:36:27.123Z,7.70
2019-03-04T01:38:56.493Z,7.70
2019-03-04T01:41:26.224Z,7.70
2019-03-04T01:43:55.598Z,7.70
2019-03-04T01:46:25.035Z,7.70
2019-03-04T01:48:54.420Z,7.70
2019-03-04T01:51:23.831Z,7.60
2019-03-04T01:53:53.755Z,7.60
2019-03-04T01:56:23.179Z,7.60
2019-03-04T01:58:52.579Z,7.60
2019-03-04T02:01:21.991Z,7.50
2019-03-04T02:03:51.098Z,7.50
2019-03-04T02:06:20.244Z,7.50
2019-03-04T02:08:49.646Z,7.50
2019-03-04T02:11:19.098Z,7.50
2019-03-04T02:13:48.199Z,7.50
2019-03-04T02:16:17.342Z,7.50
2019-03-04T02:18:46.727Z,7.50
2019-03-04T02:21:15.873Z,7.40
2019-03-04T02:23:45.259Z,7.50
2019-03-04T02:26:24.115Z,7.50
2019-03-04T02:28:55.527Z,7.50
2019-03-04T02:31:24.671Z,7.50
2019-03-04T02:33:53.787Z,7.40
2019-03-04T02:36:22.924Z,7.40
2019-03-04T02:38:52.401Z,7.30
2019-03-04T02:41:22.099Z,7.30
2019-03-04T02:43:51.753Z,7.40
2019-03-04T02:46:20.895Z,7.40
2019-03-04T02:48:50.665Z,7.50
2019-03-04T02:51:20.170Z,7.50
2019-03-04T02:53:49.612Z,7.50
2019-03-04T02:56:19.043Z,7.50
2019-03-04T02:58:48.734Z,7.50
2019-03-04T03:01:18.288Z,7.50
2019-03-04T03:03:47.733Z,7.50
2019-03-04T03:06:17.428Z,7.50
2019-03-04T03:08:47.457Z,7.50
2019-03-04T03:11:17.002Z,7.50
2019-03-04T03:13:46.405Z,7.50
2019-03-04T03:16:16.040Z,7.50
2019-03-04T03:18:45.422Z,7.40
2019-03-04T03:21:14.911Z,7.40
2019-03-04T03:23:44.320Z,7.40
2019-03-04T03:26:13.738Z,7.30
2019-03-04T03:28:43.170Z,7.30
2019-03-04T03:31:12.353Z,7.30
2019-03-04T03:33:41.502Z,7.20
2019-03-04T03:36:10.604Z,7.20
2019-03-04T03:38:40.031Z,7.10
2019-03-04T03:41:09.240Z,7.00
2019-03-04T03:43:38.720Z,7.00
2019-03-04T03:46:08.439Z,6.90
2019-03-04T03:48:37.577Z,6.80
2019-03-04T03:51:06.679Z,6.70
2019-03-04T03:53:36.150Z,6.70
2019-03-04T03:56:05.286Z,6.60
2019-03-04T03:58:35.032Z,6.60
2019-03-04T04:01:04.712Z,6.50
2019-03-04T04:03:34.144Z,6.50
2019-03-04T04:06:03.343Z,6.50
2019-03-04T04:08:32.568Z,6.40
2019-03-04T04:11:01.792Z,6.40
2019-03-04T04:13:31.232Z,6.40
2019-03-04T04:16:00.899Z,6.40
2019-03-04T04:18:30.336Z,6.40
2019-03-04T04:20:59.703Z,6.40
2019-03-04T04:23:29.135Z,6.50
2019-03-04T04:25:58.672Z,6.50
2019-03-04T04:28:28.866Z,6.50
2019-03-04T04:30:58.950Z,6.50
2019-03-04T04:33:28.756Z,6.50
2019-03-04T04:35:58.445Z,6.60
2019-03-04T04:38:27.843Z,6.60
2019-03-04T04:40:57.571Z,6.70
2019-03-04T04:43:26.717Z,6.70
2019-03-04T04:45:55.903Z,6.70
2019-03-04T04:48:25.715Z,6.80
2019-03-04T04:50:54.827Z,6.80
2019-03-04T04:53:23.971Z,6.90
2019-03-04T04:55:53.360Z,7.00
2019-03-04T04:58:22.759Z,7.10
2019-03-04T05:00:52.128Z,7.10
2019-03-04T05:03:21.267Z,7.10
2019-03-04T05:05:50.379Z,7.10
2019-03-04T05:08:20.647Z,7.10
2019-03-04T05:10:50.327Z,7.10
2019-03-04T05:13:19.461Z,7.00
2019-03-04T05:15:48.847Z,7.00
2019-03-04T05:18:17.984Z,7.00
2019-03-04T05:20:47.639Z,7.00
2019-03-04T05:23:17.344Z,7.00
2019-03-04T05:25:47.023Z,7.00
2019-03-04T05:28:16.450Z,7.00
2019-03-04T05:30:46.142Z,7.00
2019-03-04T05:33:15.586Z,7.00
2019-03-04T05:35:45.211Z,7.00
2019-03-04T05:38:14.634Z,7.00
2019-03-04T05:40:43.991Z,7.00
2019-03-04T05:43:13.711Z,6.90
2019-03-04T05:45:43.134Z,6.80
2019-03-04T05:48:12.348Z,6.70
2019-03-04T05:50:41.451Z,6.60
2019-03-04T05:53:11.143Z,6.60
2019-03-04T05:55:40.253Z,6.50
2019-03-04T05:58:09.424Z,6.40
2019-03-04T06:00:40.734Z,6.40
2019-03-04T06:03:10.393Z,6.30
2019-03-04T06:05:39.500Z,6.30
2019-03-04T06:08:09.327Z,6.30
2019-03-04T06:10:38.427Z,6.20
2019-03-04T06:13:07.854Z,6.20
2019-03-04T06:15:37.265Z,6.10
2019-03-04T06:18:06.474Z,6.20
2019-03-04T06:20:35.579Z,6.10
2019-03-04T06:23:04.996Z,6.20
2019-03-04T06:25:34.099Z,6.20
2019-03-04T06:28:03.577Z,6.30
2019-03-04T06:30:32.750Z,6.30
2019-03-04T06:33:02.155Z,6.40
2019-03-04T06:35:31.304Z,6.40
2019-03-04T06:38:00.468Z,6.50
2019-03-04T06:40:29.867Z,6.60
2019-03-04T06:42:59.013Z,6.60
2019-03-04T06:45:28.413Z,6.80
2019-03-04T06:47:57.532Z,6.80
2019-03-04T06:50:54.331Z,6.90
2019-03-04T06:53:53.087Z,7.00
2019-03-04T06:56:32.950Z,7.20
2019-03-04T06:59:42.135Z,7.30
2019-03-04T07:02:13.155Z,7.40
2019-03-04T07:05:10.779Z,7.60
2019-03-04T07:07:40.479Z,7.70
2019-03-04T07:10:09.923Z,7.90
2019-03-04T07:12:39.299Z,7.90
2019-03-04T07:15:08.554Z,8.00
2019-03-04T07:17:37.660Z,8.10
2019-03-04T07:20:10.487Z,8.10
2019-03-04T07:22:40.203Z,8.30
2019-03-04T07:25:09.452Z,8.40
2019-03-04T07:27:38.574Z,8.60
2019-03-04T07:30:09.617Z,8.80
2019-03-04T07:32:38.803Z,9.40
2019-03-04T07:35:08.473Z,9.70
2019-03-04T07:37:37.935Z,10.10
2019-03-04T07:40:08.838Z,10.40
2019-03-04T07:42:38.492Z,10.70
2019-03-04T07:45:09.097Z,11.00
2019-03-04T07:47:38.757Z,11.20
2019-03-04T07:50:08.349Z,11.50
2019-03-04T07:52:37.975Z,11.80
2019-03-04T07:55:07.503Z,11.90
2019-03-04T07:57:37.159Z,12.00
2019-03-04T08:00:06.671Z,12.10
2019-03-04T08:02:35.788Z,12.20
2019-03-04T08:05:05.998Z,12.10
2019-03-04T08:07:40.336Z,12.10
2019-03-04T08:10:33.808Z,12.20
2019-03-04T08:13:12.347Z,12.10
2019-03-04T08:15:44.119Z,12.10
2019-03-04T08:18:13.385Z,12.10
2019-03-04T08:20:42.639Z,12.00
2019-03-04T08:23:12.121Z,11.80
2019-03-04T08:25:41.291Z,11.60
2019-03-04T08:28:12.216Z,11.20
2019-03-04T08:30:41.799Z,10.80
2019-03-04T08:33:11.315Z,10.50
2019-03-04T08:35:40.693Z,10.20
2019-03-04T08:38:09.832Z,10.10
2019-03-04T08:40:38.943Z,9.90
2019-03-04T08:43:08.375Z,9.80
2019-03-04T08:45:37.496Z,9.60
2019-03-04T08:48:06.649Z,9.50
2019-03-04T08:50:36.104Z,9.20
2019-03-04T08:53:05.794Z,9.00
2019-03-04T08:55:34.907Z,8.80
2019-03-04T08:58:04.071Z,8.70
2019-03-04T09:00:33.451Z,8.70
2019-03-04T09:03:02.888Z,8.70
2019-03-04T09:05:32.059Z,8.60
2019-03-04T09:08:01.480Z,8.60
2019-03-04T09:10:31.392Z,8.60
2019-03-04T09:13:00.896Z,8.60
2019-03-04T09:15:30.355Z,8.70
2019-03-04T09:17:59.502Z,8.80
2019-03-04T09:20:28.602Z,8.80
2019-03-04T09:22:58.303Z,8.80
2019-03-04T09:25:52.299Z,8.90
2019-03-04T09:28:22.016Z,8.80
2019-03-04T09:30:51.379Z,8.70
2019-03-04T09:33:20.626Z,8.70
2019-03-04T09:35:50.024Z,8.70
2019-03-04T09:38:19.171Z,8.60
2019-03-04T09:40:48.371Z,8.70
2019-03-04T09:43:18.135Z,8.70
2019-03-04T09:45:47.525Z,8.80
2019-03-04T09:48:16.996Z,8.80
2019-03-04T09:50:46.379Z,8.90
2019-03-04T09:53:15.530Z,8.90
2019-03-04T09:55:45.010Z,9.00
2019-03-04T09:58:14.123Z,9.10
2019-03-04T10:01:05.527Z,9.10
2019-03-04T10:04:03.739Z,9.20
2019-03-04T10:07:09.431Z,9.30
2019-03-04T10:10:18.166Z,9.30
2019-03-04T10:13:24.414Z,9.30
2019-03-04T10:16:18.940Z,9.30
2019-03-04T10:19:16.160Z,9.30
2019-03-04T10:22:07.515Z,9.30
2019-03-04T10:25:03.837Z,9.30
2019-03-04T10:27:53.069Z,9.20
2019-03-04T10:31:18.195Z,9.20
2019-03-04T10:34:23.527Z,9.20
2019-03-04T10:37:38.979Z,9.20
2019-03-04T10:41:13.763Z,9.10
2019-03-04T10:44:56.787Z,9.10
2019-03-04T10:47:26.190Z,9.00
2019-03-04T10:49:55.887Z,8.90
2019-03-04T10:52:24.996Z,8.90
2019-03-04T10:54:54.420Z,8.90
2019-03-04T10:57:23.539Z,8.90
2019-03-04T10:59:53.236Z,8.80
2019-03-04T11:02:22.627Z,8.80
2019-03-04T11:04:52.055Z,8.80
2019-03-04T11:07:21.594Z,8.80
2019-03-04T11:09:50.780Z,8.80
2019-03-04T11:12:20.175Z,8.70
2019-03-04T11:14:49.598Z,8.70
2019-03-04T11:17:18.999Z,8.60
2019-03-04T11:19:48.462Z,8.60
2019-03-04T11:22:17.934Z,8.60
2019-03-04T11:24:47.363Z,8.60
2019-03-04T11:27:17.255Z,8.60
2019-03-04T11:29:46.975Z,8.60
2019-03-04T11:32:16.419Z,8.50
2019-03-04T11:34:45.557Z,8.50
2019-03-04T11:37:14.659Z,8.50
2019-03-04T11:39:59.754Z,8.50
2019-03-04T11:42:29.019Z,8.50
2019-03-04T11:44:58.467Z,8.40
2019-03-04T11:47:27.887Z,8.40
2019-03-04T11:49:57.311Z,8.50
2019-03-04T11:52:26.686Z,8.50
2019-03-04T11:54:56.379Z,8.50
2019-03-04T11:57:25.779Z,8.50
2019-03-04T11:59:55.535Z,8.50
2019-03-04T12:02:27.820Z,8.60
2019-03-04T12:04:57.224Z,8.60
2019-03-04T12:07:26.339Z,8.60
2019-03-04T12:09:56.287Z,8.50
2019-03-04T12:12:25.762Z,8.50
2019-03-04T12:14:55.447Z,8.50
2019-03-04T12:17:24.884Z,8.50
2019-03-04T12:19:53.995Z,8.60
2019-03-04T12:22:23.134Z,8.60
2019-03-04T12:24:52.319Z,8.50
2019-03-04T12:27:22.015Z,8.50
2019-03-04T12:29:51.426Z,8.50
2019-03-04T12:32:27.740Z,8.60
2019-03-04T12:34:57.403Z,8.60
2019-03-04T12:37:27.195Z,8.50
2019-03-04T12:39:56.594Z,8.50
2019-03-04T12:42:25.998Z,8.50
2019-03-04T12:44:55.207Z,8.50
2019-03-04T12:47:24.353Z,8.60
2019-03-04T12:49:53.795Z,8.60
2019-03-04T12:52:23.724Z,8.70
2019-03-04T12:54:53.151Z,8.80
2019-03-04T12:57:22.680Z,8.80
2019-03-04T12:59:52.379Z,8.90
2019-03-04T13:02:21.802Z,8.90
2019-03-04T13:04:51.199Z,9.00
2019-03-04T13:07:20.627Z,9.00
2019-03-04T13:09:50.014Z,9.00
2019-03-04T13:12:19.254Z,9.10
2019-03-04T13:14:48.911Z,9.10
2019-03-04T13:17:18.330Z,9.20
2019-03-04T13:19:47.712Z,9.30
2019-03-04T13:22:17.378Z,9.40
2019-03-04T13:24:46.767Z,9.50
2019-03-04T13:27:23.494Z,9.70
2019-03-04T13:29:47.299Z,9.80
2019-03-04T13:32:16.993Z,9.90
2019-03-04T13:34:46.187Z,10.00
2019-03-04T13:37:15.339Z,10.00
2019-03-04T13:39:44.971Z,10.10
2019-03-04T13:42:14.494Z,10.20
2019-03-04T13:44:43.639Z,10.20
2019-03-04T13:47:13.067Z,10.30
2019-03-04T13:49:42.475Z,10.40
2019-03-04T13:52:11.738Z,10.40
2019-03-04T13:54:40.842Z,10.40
2019-03-04T13:57:10.264Z,10.50
2019-03-04T13:59:39.710Z,10.60
2019-03-04T14:02:09.431Z,10.60
2019-03-04T14:04:38.536Z,10.60
2019-03-04T14:07:07.962Z,10.60
2019-03-04T14:09:37.339Z,10.60
2019-03-04T14:12:07.687Z,10.70
2019-03-04T14:14:37.352Z,10.70
2019-03-04T14:17:06.532Z,10.70
2019-03-04T14:19:35.911Z,10.70
2019-03-04T14:22:05.538Z,10.80
2019-03-04T14:24:34.910Z,10.80
2019-03-04T14:27:04.351Z,10.90
2019-03-04T14:29:33.466Z,10.90
2019-03-04T14:32:02.911Z,10.80
2019-03-04T14:34:32.367Z,10.80
2019-03-04T14:37:03.346Z,10.80
2019-03-04T14:39:32.575Z,10.90
2019-03-04T14:42:02.033Z,10.80
2019-03-04T14:44:31.146Z,10.80
2019-03-04T14:47:01.131Z,10.80
2019-03-04T14:49:30.538Z,10.90
2019-03-04T14:51:59.691Z,10.90
2019-03-04T14:54:29.121Z,10.80
2019-03-04T14:56:58.627Z,10.80
2019-03-04T14:59:28.027Z,10.70
2019-03-04T15:01:57.252Z,10.70
2019-03-04T15:04:26.659Z,10.60
2019-03-04T15:06:56.643Z,10.40
2019-03-04T15:09:26.019Z,10.30
2019-03-04T15:11:55.711Z,10.20
2019-03-04T15:14:25.720Z,10.20
2019-03-04T15:17:02.952Z,10.20
2019-03-04T15:19:26.097Z,10.20
2019-03-04T15:21:55.498Z,10.00
2019-03-04T15:24:25.217Z,9.90
2019-03-04T15:26:54.683Z,9.90
2019-03-04T15:29:23.871Z,9.80
2019-03-04T15:31:53.548Z,9.70
2019-03-04T15:34:23.019Z,9.70
2019-03-04T15:36:52.498Z,9.50
2019-03-04T15:39:23.257Z,9.40
2019-03-04T15:41:52.826Z,9.40
2019-03-04T15:44:22.088Z,9.40
2019-03-04T15:46:51.571Z,9.30
2019-03-04T15:49:21.146Z,9.20
2019-03-04T15:51:50.872Z,9.00
2019-03-04T15:54:20.142Z,8.80
2019-03-04T15:56:49.328Z,8.50
2019-03-04T15:59:18.535Z,8.30
2019-03-04T16:01:47.978Z,8.00
2019-03-04T16:04:17.198Z,7.50
2019-03-04T16:06:46.294Z,6.90
2019-03-04T16:09:18.514Z,6.50
2019-03-04T16:11:47.910Z,6.10
2019-03-04T16:14:17.755Z,5.80
2019-03-04T16:16:46.862Z,5.60
2019-03-04T16:19:16.331Z,5.40
2019-03-04T16:21:45.435Z,5.20
2019-03-04T16:24:15.300Z,5.10
2019-03-04T16:26:44.503Z,4.90
2019-03-04T16:29:14.332Z,4.80
2019-03-04T16:31:44.084Z,4.80
2019-03-04T16:34:13.296Z,4.70
2019-03-04T16:36:42.399Z,4.60
2019-03-04T16:39:11.622Z,4.60
2019-03-04T16:41:40.995Z,4.60
2019-03-04T16:44:10.499Z,4.60
2019-03-04T16:46:39.599Z,4.50
2019-03-04T16:49:08.823Z,4.50
2019-03-04T16:51:37.922Z,4.50
2019-03-04T16:54:07.688Z,4.60
2019-03-04T16:56:37.075Z,4.50
2019-03-04T16:59:06.883Z,4.50
2019-03-04T17:01:36.255Z,4.50
2019-03-04T17:04:06.119Z,4.50
2019-03-04T17:06:35.776Z,4.60
2019-03-04T17:09:14.622Z,4.50
2019-03-04T17:11:43.722Z,4.50
2019-03-04T17:14:13.255Z,4.50
2019-03-04T17:16:42.915Z,4.60
2019-03-04T17:19:12.711Z,4.50
2019-03-04T17:21:41.835Z,4.50
2019-03-04T17:24:11.915Z,4.50
2019-03-04T17:26:41.604Z,4.50
2019-03-04T17:29:11.422Z,4.50
2019-03-04T17:31:40.792Z,4.50
2019-03-04T17:34:10.620Z,4.50
2019-03-04T17:36:39.733Z,4.50
2019-03-04T17:39:09.468Z,4.50
2019-03-04T17:41:38.834Z,4.40
2019-03-04T17:44:08.350Z,4.30
2019-03-04T17:46:37.756Z,4.40
2019-03-04T17:49:07.253Z,4.30
2019-03-04T17:51:36.690Z,4.30
2019-03-04T17:54:06.174Z,4.30
2019-03-04T17:56:35.571Z,4.20
2019-03-04T17:59:05.675Z,4.20
2019-03-04T18:01:34.855Z,4.20
2019-03-04T18:04:04.803Z,4.10
2019-03-04T18:06:34.176Z,4.10
2019-03-04T18:09:04.091Z,4.00
2019-03-04T18:11:33.194Z,4.00
2019-03-04T18:14:02.694Z,4.00
2019-03-04T18:16:32.074Z,3.90
2019-03-04T18:19:01.591Z,3.90
2019-03-04T18:21:30.699Z,3.80
2019-03-04T18:24:00.086Z,3.80
2019-03-04T18:26:33.914Z,3.80
2019-03-04T18:29:23.578Z,3.80
2019-03-04T18:32:16.219Z,3.70
2019-03-04T18:35:26.007Z,3.80
2019-03-04T18:38:33.951Z,3.70
2019-03-04T18:42:02.033Z,3.70
2019-03-04T18:45:04.534Z,3.70
2019-03-04T18:47:54.895Z,3.70
2019-03-04T18:50:24.324Z,3.70
2019-03-04T18:52:53.726Z,3.70
2019-03-04T18:55:23.143Z,3.70
2019-03-04T18:57:52.263Z,3.80
2019-03-04T19:00:24.999Z,3.80
2019-03-04T19:02:54.105Z,3.80
2019-03-04T19:05:23.586Z,3.80
2019-03-04T19:07:53.047Z,3.80
2019-03-04T19:10:22.283Z,3.80
2019-03-04T19:12:51.655Z,3.80
2019-03-04T19:15:20.885Z,3.80
2019-03-04T19:17:49.987Z,3.80
2019-03-04T19:20:19.259Z,3.80
2019-03-04T19:22:49.009Z,3.80
2019-03-04T19:25:18.786Z,3.80
2019-03-04T19:27:47.892Z,3.80
2019-03-04T19:30:17.843Z,3.80
2019-03-04T19:32:47.494Z,3.80
2019-03-04T19:35:16.723Z,3.90
2019-03-04T19:37:45.907Z,3.80
2019-03-04T19:40:15.394Z,3.80
2019-03-04T19:42:44.843Z,3.80
2019-03-04T19:45:15.535Z,3.90
2019-03-04T19:47:44.932Z,3.80
2019-03-04T19:50:15.339Z,3.80
2019-03-04T19:52:44.454Z,3.80
2019-03-04T19:55:14.207Z,3.70
2019-03-04T19:57:43.344Z,3.70
2019-03-04T20:00:14.632Z,3.60
2019-03-04T20:02:44.303Z,3.60
2019-03-04T20:05:16.159Z,3.50
2019-03-04T20:07:45.278Z,3.50
2019-03-04T20:10:15.031Z,3.40
2019-03-04T20:12:44.511Z,3.30
2019-03-04T20:15:19.078Z,3.30
2019-03-04T20:17:48.567Z,3.30
2019-03-04T20:20:17.936Z,3.20
2019-03-04T20:22:47.494Z,3.20
2019-03-04T20:25:17.103Z,3.20
2019-03-04T20:27:46.677Z,3.10
2019-03-04T20:30:15.921Z,3.10
2019-03-04T20:32:45.117Z,3.00
2019-03-04T20:35:14.730Z,3.00
2019-03-04T20:37:46.111Z,3.00
2019-03-04T20:40:15.727Z,3.00
2019-03-04T20:42:45.230Z,2.90
2019-03-04T20:45:14.860Z,2.90
2019-03-04T20:47:44.271Z,2.90
2019-03-04T20:50:16.901Z,2.90
2019-03-04T20:52:46.042Z,2.90
2019-03-04T20:55:15.440Z,2.90
2019-03-04T20:57:44.585Z,2.80
2019-03-04T21:00:18.286Z,2.80
2019-03-04T21:02:47.434Z,2.80
2019-03-04T21:05:16.965Z,2.80
2019-03-04T21:07:46.229Z,2.80
2019-03-04T21:10:15.919Z,2.80
2019-03-04T21:12:47.397Z,2.80
2019-03-04T21:15:17.359Z,2.80
2019-03-04T21:17:46.830Z,2.80
2019-03-04T21:20:16.779Z,2.90
2019-03-04T21:22:46.780Z,2.90
2019-03-04T21:25:39.903Z,2.90
2019-03-04T21:28:13.308Z,2.90
2019-03-04T21:31:17.383Z,2.90
2019-03-04T21:34:17.391Z,2.90
2019-03-04T21:37:09.447Z,2.90
2019-03-04T21:39:39.064Z,2.90
2019-03-04T21:42:15.394Z,2.90
2019-03-04T21:45:20.198Z,3.00
2019-03-04T21:47:56.074Z,3.00
2019-03-04T21:50:42.515Z,3.10
2019-03-04T21:53:19.182Z,3.10
2019-03-04T21:55:58.976Z,3.10
2019-03-04T21:58:28.117Z,3.20
2019-03-04T22:01:01.880Z,3.20
2019-03-04T22:03:33.846Z,3.20
2019-03-04T22:06:03.375Z,3.30
2019-03-04T22:08:32.864Z,3.30
2019-03-04T22:11:02.784Z,3.40
2019-03-04T22:13:32.282Z,3.40
2019-03-04T22:16:02.592Z,3.50
2019-03-04T22:18:31.754Z,3.60
2019-03-04T22:21:01.308Z,3.60
2019-03-04T22:23:31.401Z,3.60
2019-03-04T22:26:02.063Z,3.60
2019-03-04T22:28:32.343Z,3.70
2019-03-04T22:31:01.566Z,3.70
2019-03-04T22:33:31.130Z,3.70
2019-03-04T22:36:00.647Z,3.60
2019-03-04T22:38:30.240Z,3.60
2019-03-04T22:40:59.491Z,3.50
2019-03-04T22:43:28.919Z,3.50
2019-03-04T22:45:58.694Z,3.50
2019-03-04T22:48:28.173Z,3.40
2019-03-04T22:50:57.634Z,3.40
2019-03-04T22:53:26.843Z,3.30
2019-03-04T22:55:56.434Z,3.30
2019-03-04T22:58:28.826Z,3.40
2019-03-04T23:01:28.343Z,3.30
2019-03-04T23:04:22.147Z,3.30
2019-03-04T23:07:41.844Z,3.20
2019-03-04T23:10:36.047Z,3.20
2019-03-04T23:13:27.951Z,3.20
2019-03-04T23:15:58.398Z,3.10
2019-03-04T23:18:28.107Z,3.10
2019-03-04T23:20:57.483Z,3.00
2019-03-04T23:23:26.791Z,3.00
2019-03-04T23:25:56.584Z,3.00
2019-03-04T23:28:26.051Z,2.90
2019-03-04T23:30:55.451Z,2.90
2019-03-04T23:33:25.419Z,2.80
2019-03-04T23:35:54.558Z,2.80
2019-03-04T23:38:23.689Z,2.70
2019-03-04T23:40:53.430Z,2.70
2019-03-04T23:43:23.095Z,2.70
2019-03-04T23:45:52.226Z,2.70
2019-03-04T23:48:21.343Z,2.70
2019-03-04T23:50:50.510Z,2.60
2019-03-04T23:53:19.910Z,2.60
2019-03-04T23:55:49.042Z,2.60
2019-03-04T23:58:18.438Z,2.60
